Terminal Aerodrome Forecast
Issued by NWS Boston, MA

Home | Current Version | Previous Version | Text Only | Print | Product List | Glossary On
Versions: 1 2 3 4 5 6 7 8 9 10 11 12 13 14 15 16 17 18 19 20 21 22 23 24 25 26 27 28 29 30 31 32 33 34 35 36 37 38 39
000
FTUS41 KBOX 301120
TAFBDL
TAF
KBDL 301120Z 3012/3118 18005KT 5SM BR SCT160 BKN250
     FM301230 19006KT P6SM SKC
     FM301600 20010KT P6SM VCSH SCT050
     FM301800 20012G20KT P6SM VCSH BKN030
     FM302100 20009KT P6SM VCTS BKN025 OVC050CB
     FM310000 20008KT P6SM VCSH OVC020
     FM310200 20006KT P6SM BKN020
     FM311500 29006KT P6SM FEW250=

USA.gov is the U.S. government's official web portal to all federal, state and local government web resources and services.